Aeroporto :
LOGIN :

Iscrizione | Disclaimer

   EN    FR    IT 

 










Sommario :    VFR   VFR Marginale   IFR   IFR Intensivo   IFR Molto Intensivo
Visibilità : 
Base nubi : 
>= 8 km
>= 3000ft
5 / 8 km
1000 / 3000 ft
1500m / 5 km
500 / 1000 ft
800 / 1500m
200 / 500 ft
< 800m
< 200 ft
Simboli :   Temporali  Nebbia  Neve Forte  Precipitazioni Forti  Vento > 20 kt
SIGMETs :   Varie  Temporali  Ghiacco  Turbolenza  Onda orograficha  Ceneri Vulcaniche






- Altitudine del aeroporto : 50 ft
- Codice IATA : KOI


EGPA - Kirkwall

ULTIMO METAR :
  • 171750Z 26005KT 9999 VCSH FEW018CB FEW025 01/M00 Q1017

METARs OBSOLETI :
  • 171720Z 26005KT 9999 VCSH FEW018CB FEW030 02/M00 Q1017
  • 171650Z 26003KT 9999 VCSH FEW018CB FEW030 02/00 Q1016
  • 171620Z 27003KT 9999 VCSH FEW018CB FEW030 02/00 Q1016
  • 171550Z 26003KT 9999 VCSH FEW018 SCT030 02/01 Q1016
  • 171520Z 30004KT 250V320 9999 VCSH FEW018 SCT030 04/01 Q1016
  • 171450Z 28003KT 9999 VCSH FEW018 SCT030 05/02 Q1016

TAF TAF EGPA
Valido dal 17 a 18 ore il 18 a 03 ore UTC


171658Z 1718/1803 29007KT 9999 FEW020
PROB30
TEMPO 1718/1803 6000 SHRA BKN014



MetMap, La meteo Aeronautica in un colpo d'occhio ! - Copyright ORBIFLY Dicembre 2007 - Disclaimer

ORBIFLY MET'MAP TEAM :

Programmazione e sviluppo : Alexandra Zaïnal
Concezione e sviluppo : Baudouin d'Aumeries
Co-Programmazione e sviluppo : Marc-Olivier Méhu
Supporto tecnico e logistico : Manuel Goepfert
Aiuto per la traduzione : Arnaldo La Scala

Contatto : metmap@orbifly.com




FONTI E CREDITI :

   NOAA